Hauptseite
METAR-TAF:

METAR-TAF

Flughäfen :

Flughafen Tabarka-Aïn Draham

Tabarka, Tunesien

Breite: 36-57N, Länge: 008-45E, Höhe: 20 m

Beobachtung

Neuester Wetterbericht von vor 52 Minuten, um 04:00 UTC
Wind 2 kt aus unterschiedlichen Richtungen
Temperatur 13°C
Luftfeuchtigkeit 100%
Luftdruck 1015 hPa

METAR: DTKA 250400Z AUTO VRB02KT /// 13/13 Q1015

Zeit: 05:52 (04:52 UTC)

Prognose

Neuester Wetterbericht von vor 1 Stunde und 52 Minuten, um 03:00 UTC
Gültige Prognose vom 25 um 04 UTC bis 25 um 13 UTC
Wind 4 kt aus unterschiedlichen Richtungen
Sichtweite 10 km oder mehr
Leicht bewölkt in der Höhe von 2000 ft
Wahrscheinlichkeit 40% :
Zeitweise
vom 25 um 04 UTC bis 25 um 07 UTC
Sichtweite: 3000 m
feuchter Dunst

TAF: DTKA 250300Z 2504/2513 VRB04KT 9999 FEW020 PROB40 TEMPO 2504/2507 3000 BR

Wetterbeobachtungen und Prognosen von mehr als 4000 Flughäfen (METAR und TAF Bericht).

Die verfügbaren Stationen werden durch gelbe und rote Markierungen auf der Karte dargestellt.

Führen Sie die Maus auf sie, um den Namen der Station zu sehen.

Darauf klicken, um die Beobachtung von Wetterbeobachtungen und Prognosen zu sehen.

Um die Karte zu ändern : klicken Sie auf den grünen Tasten mit einem schwarzen Kreuz Zum Vergrößern, auf den grünen Button mit einem Gedankenstrich zu verkleinern, oder auf die grünen Pfeile für benachbarte Karten.


METAR-TAF: